Time;durP1;ratioP1;P1;durP2;ratioP2;P2;SDS_P1;SDS_P2;PMS_P1;PMS_P2;Temp;Humidity;BMP_temperature;BMP_pressure;BME280_temperature;BME280_humidity;BME280_pressure;Samples;Min_cycle;Max_cycle;Signal;HPM_P1;HPM_P2
2022/11/15 00:01:46;;;;;;;3.75;2.10;;;;;;;;;;6203812;23;20039;-82
2022/11/15 00:04:12;;;;;;;3.35;2.20;;;;;;;;;;6203202;23;20004;-83
2022/11/15 00:06:38;;;;;;;3.90;2.30;;;;;;;;;;6178091;23;20508;-81
2022/11/15 00:09:04;;;;;;;5.32;2.20;;;;;;;;;;6206379;23;20043;-84
2022/11/15 00:11:30;;;;;;;5.72;2.38;;;;;;;;;;6207949;23;20016;-83
2022/11/15 00:13:57;;;;;;;6.93;2.53;;;;;;;;;;6207383;23;20004;-83
2022/11/15 00:16:23;;;;;;;3.50;2.15;;;;;;;;;;6207081;23;20425;-82
2022/11/15 00:18:50;;;;;;;5.22;2.15;;;;;;;;;;6205614;23;20012;-83
2022/11/15 00:21:16;;;;;;;3.10;2.17;;;;;;;;;;6207740;23;20325;-83
2022/11/15 00:23:43;;;;;;;4.05;2.80;;;;;;;;;;6206843;23;20085;-83
2022/11/15 00:26:13;;;;;;;6.47;2.55;;;;;;;;;;6181187;23;20005;-84
2022/11/15 00:28:39;;;;;;;3.78;2.40;;;;;;;;;;6205534;23;20180;-83
2022/11/15 00:31:06;;;;;;;3.97;2.20;;;;;;;;;;6207515;23;19997;-83
2022/11/15 00:33:33;;;;;;;5.10;2.30;;;;;;;;;;6206942;23;20338;-81
2022/11/15 00:36:10;;;;;;;3.60;2.30;;;;;;;;;;6207485;23;20019;-83
2022/11/15 00:38:38;;;;;;;3.35;2.22;;;;;;;;;;6205806;23;20008;-82
2022/11/15 00:41:06;;;;;;;7.20;2.40;;;;;;;;;;6204416;23;20028;-83
2022/11/15 00:43:32;;;;;;;6.05;2.20;;;;;;;;;;6207946;23;20011;-83
2022/11/15 00:45:58;;;;;;;3.88;2.55;;;;;;;;;;6207650;23;20011;-82
2022/11/15 00:48:25;;;;;;;5.10;2.30;;;;;;;;;;6208277;23;20082;-80
2022/11/15 00:50:51;;;;;;;3.83;2.15;;;;;;;;;;6205077;23;20353;-82
2022/11/15 00:53:17;;;;;;;4.55;2.35;;;;;;;;;;6207942;23;19997;-84
2022/11/15 00:55:43;;;;;;;5.50;2.10;;;;;;;;;;6207231;23;20008;-83
2022/11/15 00:58:10;;;;;;;6.00;2.20;;;;;;;;;;6207647;23;20017;-83
2022/11/15 01:00:36;;;;;;;5.13;2.63;;;;;;;;;;6206651;23;20420;-83
2022/11/15 01:03:02;;;;;;;4.47;2.30;;;;;;;;;;6208608;23;20406;-84
2022/11/15 01:05:28;;;;;;;3.95;2.40;;;;;;;;;;6208049;23;20000;-85
2022/11/15 01:07:55;;;;;;;4.93;2.30;;;;;;;;;;6208252;23;20014;-84
2022/11/15 01:10:22;;;;;;;4.80;2.45;;;;;;;;;;6206398;23;20000;-84
2022/11/15 01:12:48;;;;;;;5.07;2.20;;;;;;;;;;6208564;23;20174;-84
2022/11/15 01:15:14;;;;;;;4.68;2.20;;;;;;;;;;6208957;23;20024;-83
2022/11/15 01:17:40;;;;;;;3.38;2.45;;;;;;;;;;6208408;23;20009;-83
2022/11/15 01:20:07;;;;;;;3.58;2.35;;;;;;;;;;6208686;23;20000;-83
2022/11/15 01:22:33;;;;;;;2.85;2.30;;;;;;;;;;6208268;23;20001;-84
2022/11/15 01:24:59;;;;;;;3.95;2.17;;;;;;;;;;6205828;23;20004;-82
2022/11/15 01:27:25;;;;;;;5.97;2.30;;;;;;;;;;6207353;23;20085;-83
2022/11/15 01:29:51;;;;;;;3.13;2.33;;;;;;;;;;6207222;23;20001;-77
2022/11/15 01:32:18;;;;;;;3.17;2.20;;;;;;;;;;6207945;23;20456;-81
2022/11/15 01:34:44;;;;;;;6.25;2.58;;;;;;;;;;6207724;23;20001;-83
2022/11/15 01:37:10;;;;;;;3.97;2.60;;;;;;;;;;6207318;23;20017;-83
2022/11/15 01:39:36;;;;;;;3.58;2.10;;;;;;;;;;6205142;23;20031;-83
2022/11/15 01:42:03;;;;;;;5.13;2.42;;;;;;;;;;6207899;23;20054;-84
2022/11/15 01:44:43;;;;;;;3.53;2.15;;;;;;;;;;6207624;23;20311;-80
2022/11/15 01:47:12;;;;;;;4.13;2.42;;;;;;;;;;6207789;23;20521;-83
2022/11/15 01:49:39;;;;;;;2.72;2.20;;;;;;;;;;6207365;23;20008;-85
2022/11/15 01:52:08;;;;;;;3.38;1.85;;;;;;;;;;6206411;23;20001;-83
2022/11/15 01:54:34;;;;;;;3.22;1.95;;;;;;;;;;6208302;23;20100;-83
2022/11/15 01:57:02;;;;;;;2.75;2.30;;;;;;;;;;6208546;23;20009;-83
2022/11/15 01:59:28;;;;;;;4.80;2.38;;;;;;;;;;6207926;23;20337;-82
2022/11/15 02:01:55;;;;;;;4.03;2.13;;;;;;;;;;6208029;23;20007;-83
2022/11/15 02:04:24;;;;;;;3.90;2.22;;;;;;;;;;6206569;23;20011;-84
2022/11/15 02:06:50;;;;;;;5.10;2.60;;;;;;;;;;6207979;23;20007;-84
2022/11/15 02:09:17;;;;;;;4.80;2.35;;;;;;;;;;6207940;23;20008;-85
2022/11/15 02:11:44;;;;;;;3.35;2.55;;;;;;;;;;6208411;23;20024;-79
2022/11/15 02:14:11;;;;;;;4.05;2.30;;;;;;;;;;6208378;23;20001;-84
2022/11/15 02:16:40;;;;;;;5.60;2.45;;;;;;;;;;6207222;23;20005;-83
2022/11/15 02:19:18;;;;;;;3.30;2.20;;;;;;;;;;6207886;23;20059;-83
2022/11/15 02:22:03;;;;;;;3.95;2.10;;;;;;;;;;6181915;23;20484;-81
2022/11/15 02:24:47;;;;;;;7.57;2.53;;;;;;;;;;6207784;23;20623;-84
2022/11/15 02:27:23;;;;;;;4.05;2.60;;;;;;;;;;6205528;23;20123;-83
2022/11/15 02:29:58;;;;;;;7.82;2.83;;;;;;;;;;6207581;23;20777;-84
2022/11/15 02:32:33;;;;;;;2.75;2.40;;;;;;;;;;6207771;23;20004;-84
2022/11/15 02:35:02;;;;;;;6.00;2.30;;;;;;;;;;6206082;23;20063;-82
2022/11/15 02:37:39;;;;;;;5.35;2.47;;;;;;;;;;6207440;23;20553;-84
2022/11/15 02:40:08;;;;;;;5.68;2.22;;;;;;;;;;6207040;23;19996;-81
2022/11/15 02:45:25;;;;;;;4.10;2.30;;;;;;;;;;6208172;23;20019;-84
2022/11/15 02:47:53;;;;;;;7.50;2.60;;;;;;;;;;6206796;23;20055;-83
2022/11/15 02:50:20;;;;;;;2.50;2.30;;;;;;;;;;6207088;23;20024;-82
2022/11/15 02:52:47;;;;;;;3.00;2.10;;;;;;;;;;6206976;23;20015;-83
2022/11/15 02:55:48;;;;;;;4.40;2.03;;;;;;;;;;6207089;23;20024;-83
2022/11/15 02:58:31;;;;;;;3.90;2.53;;;;;;;;;;6082924;23;20506;-82
2022/11/15 03:01:00;;;;;;;5.10;2.28;;;;;;;;;;6196578;23;20430;-80
2022/11/15 03:03:32;;;;;;;5.90;2.63;;;;;;;;;;6207183;23;20066;-83
2022/11/15 03:06:17;;;;;;;9.20;2.20;;;;;;;;;;6209202;23;20004;-83
2022/11/15 03:08:43;;;;;;;4.10;2.47;;;;;;;;;;6208759;23;20073;-77
2022/11/15 03:11:11;;;;;;;3.38;2.15;;;;;;;;;;6207447;23;20004;-80
2022/11/15 03:13:41;;;;;;;4.78;2.30;;;;;;;;;;6208647;23;20008;-82
2022/11/15 03:16:24;;;;;;;6.63;2.63;;;;;;;;;;6208947;23;20004;-81
2022/11/15 03:18:56;;;;;;;2.95;2.30;;;;;;;;;;6208380;23;20020;-82
2022/11/15 03:21:22;;;;;;;4.32;2.30;;;;;;;;;;6208854;23;19997;-83
2022/11/15 03:23:49;;;;;;;3.03;2.15;;;;;;;;;;6206792;23;20005;-83
2022/11/15 03:26:17;;;;;;;3.08;2.17;;;;;;;;;;6208024;23;20005;-83
2022/11/15 03:28:46;;;;;;;4.03;2.10;;;;;;;;;;6208554;23;20008;-83
2022/11/15 03:34:00;;;;;;;3.47;1.92;;;;;;;;;;6208864;23;20135;-79
2022/11/15 03:36:27;;;;;;;3.55;2.38;;;;;;;;;;6208332;23;20019;-82
2022/11/15 03:38:59;;;;;;;5.50;2.50;;;;;;;;;;6208018;23;20456;-84
2022/11/15 03:41:38;;;;;;;3.97;2.13;;;;;;;;;;6209025;23;20035;-83
2022/11/15 03:44:17;;;;;;;4.15;2.10;;;;;;;;;;6206861;23;20307;-81
2022/11/15 03:46:46;;;;;;;2.95;2.10;;;;;;;;;;6208348;23;20005;-83
2022/11/15 03:49:23;;;;;;;4.90;2.17;;;;;;;;;;6208728;23;20050;-82
2022/11/15 03:51:49;;;;;;;5.55;2.00;;;;;;;;;;6205524;23;20001;-85
2022/11/15 03:54:15;;;;;;;3.35;1.90;;;;;;;;;;6203190;23;20008;-86
2022/11/15 03:56:41;;;;;;;4.80;2.40;;;;;;;;;;6203475;23;20012;-82
2022/11/15 03:59:07;;;;;;;6.25;2.13;;;;;;;;;;6203518;23;20008;-86
2022/11/15 04:01:33;;;;;;;5.93;2.15;;;;;;;;;;6203225;23;20004;-86
2022/11/15 04:03:59;;;;;;;3.50;2.03;;;;;;;;;;6203439;23;20042;-82
2022/11/15 04:06:25;;;;;;;3.38;2.17;;;;;;;;;;6202174;23;20001;-86
2022/11/15 04:08:52;;;;;;;2.92;2.08;;;;;;;;;;6202775;23;20051;-86
2022/11/15 04:11:18;;;;;;;5.13;2.00;;;;;;;;;;6202932;23;20001;-86
2022/11/15 04:13:44;;;;;;;4.43;2.15;;;;;;;;;;6202585;23;20072;-86
2022/11/15 04:16:10;;;;;;;3.22;1.98;;;;;;;;;;6202557;23;20008;-85
2022/11/15 04:18:36;;;;;;;3.10;2.20;;;;;;;;;;6197057;23;20039;-86
2022/11/15 04:26:19;;;;;;;;;;;;;;;;;;6210819;23;20012;-86
2022/11/15 04:31:29;;;;;;;4.10;2.00;;;;;;;;;;6199801;23;20353;-79
2022/11/15 04:33:56;;;;;;;4.10;2.70;;;;;;;;;;6200501;23;20005;-87
2022/11/15 04:39:11;;;;;;;8.20;4.13;;;;;;;;;;6143313;23;20012;-86
2022/11/15 04:41:37;;;;;;;5.55;4.00;;;;;;;;;;6199703;23;20005;-87
2022/11/15 04:44:03;;;;;;;7.55;3.53;;;;;;;;;;6169079;23;20066;-83
2022/11/15 04:46:30;;;;;;;6.20;3.92;;;;;;;;;;6201306;23;20020;-87
2022/11/15 04:48:56;;;;;;;6.53;4.43;;;;;;;;;;6200326;23;20079;-86
2022/11/15 04:51:22;;;;;;;6.32;3.97;;;;;;;;;;6199327;23;20004;-87
2022/11/15 04:53:48;;;;;;;6.85;4.15;;;;;;;;;;6200376;23;20004;-78
2022/11/15 04:56:14;;;;;;;8.73;4.07;;;;;;;;;;6200240;23;20032;-83
2022/11/15 04:58:40;;;;;;;8.35;4.45;;;;;;;;;;6197569;23;20024;-86
2022/11/15 05:01:08;;;;;;;3.95;2.40;;;;;;;;;;6200108;23;20001;-86
2022/11/15 05:06:19;;;;;;;6.60;2.58;;;;;;;;;;6200725;23;20036;-87
2022/11/15 05:08:45;;;;;;;3.67;2.25;;;;;;;;;;6200635;23;20123;-86
2022/11/15 05:11:11;;;;;;;3.92;2.03;;;;;;;;;;6198160;23;20000;-87
2022/11/15 05:13:37;;;;;;;4.47;2.28;;;;;;;;;;6200177;23;20005;-87
2022/11/15 05:16:03;;;;;;;6.30;2.33;;;;;;;;;;6199257;23;20011;-86
2022/11/15 05:18:30;;;;;;;2.85;2.03;;;;;;;;;;6199421;23;20013;-84
2022/11/15 05:20:56;;;;;;;13.45;2.80;;;;;;;;;;6200490;23;20015;-86
2022/11/15 05:23:22;;;;;;;7.63;3.03;;;;;;;;;;6173641;23;20005;-87
2022/11/15 05:25:48;;;;;;;4.97;2.35;;;;;;;;;;6197803;23;20008;-86
2022/11/15 05:28:14;;;;;;;3.92;2.10;;;;;;;;;;6199294;23;20414;-80
2022/11/15 05:30:40;;;;;;;5.30;2.22;;;;;;;;;;6198599;23;20059;-86
2022/11/15 05:33:07;;;;;;;4.63;2.15;;;;;;;;;;6199176;23;20008;-84
2022/11/15 05:35:39;;;;;;;4.88;2.28;;;;;;;;;;6197948;23;20016;-84
2022/11/15 05:38:06;;;;;;;5.88;2.03;;;;;;;;;;6199589;23;20739;-87
2022/11/15 05:40:32;;;;;;;3.50;2.22;;;;;;;;;;6172532;23;20365;-87
2022/11/15 05:43:00;;;;;;;5.78;3.42;;;;;;;;;;6197900;23;20016;-86
2022/11/15 05:45:27;;;;;;;5.10;2.55;;;;;;;;;;6199072;23;19997;-85
2022/11/15 05:47:54;;;;;;;4.65;1.92;;;;;;;;;;6197652;23;20000;-84
2022/11/15 05:50:20;;;;;;;2.75;2.30;;;;;;;;;;6199672;23;20008;-83
2022/11/15 05:52:47;;;;;;;5.57;2.20;;;;;;;;;;6173103;23;20004;-83
2022/11/15 05:55:13;;;;;;;5.47;2.10;;;;;;;;;;6199546;23;20005;-86
2022/11/15 05:57:39;;;;;;;4.78;1.88;;;;;;;;;;6197430;23;20220;-85
2022/11/15 06:00:06;;;;;;;3.05;2.42;;;;;;;;;;6200017;23;20005;-87
2022/11/15 06:02:32;;;;;;;2.17;1.95;;;;;;;;;;6173751;23;20004;-87
2022/11/15 06:04:58;;;;;;;4.38;2.05;;;;;;;;;;6199482;23;20031;-86
2022/11/15 06:07:24;;;;;;;3.80;2.22;;;;;;;;;;6200197;23;20012;-81
2022/11/15 06:09:50;;;;;;;3.72;3.13;;;;;;;;;;6198837;23;20430;-87
2022/11/15 06:12:16;;;;;;;3.53;2.20;;;;;;;;;;6198673;23;20004;-85
2022/11/15 06:14:43;;;;;;;4.25;2.35;;;;;;;;;;6202097;23;20440;-83
2022/11/15 06:17:09;;;;;;;5.45;2.30;;;;;;;;;;6200721;23;20050;-78
2022/11/15 06:19:35;;;;;;;3.47;2.22;;;;;;;;;;6200399;23;20038;-82
2022/11/15 06:22:01;;;;;;;4.85;2.50;;;;;;;;;;6199871;23;20076;-84
2022/11/15 06:24:27;;;;;;;4.13;1.80;;;;;;;;;;6199874;23;20007;-72
2022/11/15 06:26:53;;;;;;;5.07;2.10;;;;;;;;;;6200958;23;20008;-84
2022/11/15 06:29:20;;;;;;;4.75;2.03;;;;;;;;;;6201282;23;20005;-82
2022/11/15 06:31:46;;;;;;;3.58;2.00;;;;;;;;;;6199311;23;20055;-82
2022/11/15 06:34:12;;;;;;;3.08;1.90;;;;;;;;;;6199596;23;20593;-82
2022/11/15 06:36:38;;;;;;;4.53;1.95;;;;;;;;;;6165254;23;20021;-83
2022/11/15 06:39:05;;;;;;;2.90;1.90;;;;;;;;;;6170127;23;20047;-78
2022/11/15 06:41:31;;;;;;;3.38;1.60;;;;;;;;;;6171109;23;20011;-82
2022/11/15 06:43:57;;;;;;;6.13;1.70;;;;;;;;;;6170684;23;20037;-75
2022/11/15 06:46:23;;;;;;;2.40;1.52;;;;;;;;;;6170766;23;20005;-82
2022/11/15 06:48:53;;;;;;;6.47;2.97;;;;;;;;;;6169433;23;20523;-84
2022/11/15 06:51:19;;;;;;;5.05;1.50;;;;;;;;;;6171169;23;20012;-82
2022/11/15 06:53:45;;;;;;;2.70;1.63;;;;;;;;;;6166007;23;20007;-81
2022/11/15 06:56:12;;;;;;;3.15;1.60;;;;;;;;;;6167991;23;20430;-80
2022/11/15 06:58:38;;;;;;;3.25;1.80;;;;;;;;;;6168369;23;20696;-80
2022/11/15 07:01:06;;;;;;;2.90;1.65;;;;;;;;;;6167652;23;20059;-80
2022/11/15 07:03:32;;;;;;;2.85;1.77;;;;;;;;;;6167427;23;20009;-78
2022/11/15 07:05:58;;;;;;;2.65;1.90;;;;;;;;;;6169675;23;20104;-80
2022/11/15 07:08:27;;;;;;;3.95;1.95;;;;;;;;;;6167702;23;20541;-81
2022/11/15 07:10:53;;;;;;;3.13;1.65;;;;;;;;;;6167799;23;20477;-82
2022/11/15 07:13:19;;;;;;;4.20;1.70;;;;;;;;;;6169540;23;20005;-81
2022/11/15 07:15:45;;;;;;;3.22;1.60;;;;;;;;;;6169745;23;20005;-80
2022/11/15 07:18:12;;;;;;;3.67;1.48;;;;;;;;;;6165615;23;20017;-80
2022/11/15 07:20:39;;;;;;;3.40;1.40;;;;;;;;;;6166867;23;20005;-79
2022/11/15 07:23:05;;;;;;;10.50;2.85;;;;;;;;;;6167940;23;20009;-80
2022/11/15 07:25:32;;;;;;;5.22;2.80;;;;;;;;;;6169026;23;20001;-81
2022/11/15 07:27:59;;;;;;;10.60;3.33;;;;;;;;;;6168773;23;20017;-81
2022/11/15 07:30:25;;;;;;;10.40;3.67;;;;;;;;;;6168113;23;20001;-78
2022/11/15 07:32:58;;;;;;;4.72;2.40;;;;;;;;;;6168875;23;20001;-79
2022/11/15 07:35:25;;;;;;;6.32;2.80;;;;;;;;;;6169984;23;20001;-79
2022/11/15 07:37:58;;;;;;;6.30;2.70;;;;;;;;;;6197034;23;20224;-79
2022/11/15 07:40:24;;;;;;;6.30;3.25;;;;;;;;;;6196240;23;20032;-80
2022/11/15 07:42:53;;;;;;;10.32;3.00;;;;;;;;;;6199156;23;20126;-79
2022/11/15 07:45:20;;;;;;;5.15;2.85;;;;;;;;;;6199425;23;20005;-79
2022/11/15 07:47:46;;;;;;;6.00;2.90;;;;;;;;;;6199643;23;20038;-80
2022/11/15 07:50:12;;;;;;;9.32;2.55;;;;;;;;;;6198290;23;20004;-79
2022/11/15 07:52:40;;;;;;;3.88;2.35;;;;;;;;;;6198196;23;20053;-80
2022/11/15 07:55:06;;;;;;;9.68;3.28;;;;;;;;;;6173972;23;20008;-80
2022/11/15 07:57:32;;;;;;;6.63;2.50;;;;;;;;;;6198878;23;20035;-80
2022/11/15 07:59:58;;;;;;;3.92;2.55;;;;;;;;;;6198986;23;20004;-81
2022/11/15 08:02:25;;;;;;;5.05;2.05;;;;;;;;;;6197378;23;20024;-77
2022/11/15 08:04:51;;;;;;;2.75;2.00;;;;;;;;;;6199858;23;20079;-80
2022/11/15 08:07:17;;;;;;;3.03;2.00;;;;;;;;;;6197088;23;20050;-81
2022/11/15 08:09:43;;;;;;;7.22;2.72;;;;;;;;;;6199223;23;20000;-81
2022/11/15 08:12:09;;;;;;;4.78;2.28;;;;;;;;;;6172608;23;20518;-80
2022/11/15 08:14:35;;;;;;;3.47;2.55;;;;;;;;;;6199043;23;19997;-80
2022/11/15 08:17:02;;;;;;;5.10;3.50;;;;;;;;;;6198627;23;20005;-80
2022/11/15 08:19:28;;;;;;;8.77;4.43;;;;;;;;;;6198650;23;20013;-80
2022/11/15 08:21:54;;;;;;;9.27;4.47;;;;;;;;;;6199388;23;19996;-80
2022/11/15 08:24:20;;;;;;;13.15;5.80;;;;;;;;;;6199865;23;20008;-80
2022/11/15 08:26:46;;;;;;;8.45;4.47;;;;;;;;;;6197403;23;20020;-80
2022/11/15 08:29:13;;;;;;;6.55;4.35;;;;;;;;;;6199256;23;20004;-80
2022/11/15 08:31:39;;;;;;;8.27;4.35;;;;;;;;;;6198406;23;20035;-78
2022/11/15 08:34:05;;;;;;;7.55;3.22;;;;;;;;;;6172647;23;20013;-80
2022/11/15 08:36:32;;;;;;;5.10;2.70;;;;;;;;;;6198892;23;20016;-79
2022/11/15 08:38:58;;;;;;;3.53;2.70;;;;;;;;;;6197520;23;20021;-80
2022/11/15 08:41:35;;;;;;;9.57;3.17;;;;;;;;;;6198573;23;20107;-79
2022/11/15 08:44:01;;;;;;;5.63;3.30;;;;;;;;;;6199037;23;20004;-79
2022/11/15 08:46:28;;;;;;;5.82;3.72;;;;;;;;;;6172876;23;20087;-81
2022/11/15 08:48:54;;;;;;;7.70;4.30;;;;;;;;;;6196537;23;20005;-81
2022/11/15 08:51:20;;;;;;;6.78;3.55;;;;;;;;;;6197609;23;20570;-79
2022/11/15 08:53:46;;;;;;;4.82;3.35;;;;;;;;;;6197899;23;20005;-79
2022/11/15 08:56:14;;;;;;;3.55;3.08;;;;;;;;;;6198314;23;20003;-80
2022/11/15 08:58:42;;;;;;;3.55;3.00;;;;;;;;;;6198114;23;20016;-81
2022/11/15 09:01:15;;;;;;;5.70;3.55;;;;;;;;;;6195671;23;20024;-81
2022/11/15 09:03:41;;;;;;;12.50;10.00;;;;;;;;;;6196087;23;20010;-81
2022/11/15 09:06:07;;;;;;;11.02;8.85;;;;;;;;;;6198195;23;20011;-81
2022/11/15 09:08:33;;;;;;;10.02;6.70;;;;;;;;;;6197828;23;20000;-80
2022/11/15 09:11:03;;;;;;;10.27;6.53;;;;;;;;;;6198188;23;20026;-82
2022/11/15 09:13:29;;;;;;;8.70;6.05;;;;;;;;;;6197402;23;20026;-75
2022/11/15 09:15:59;;;;;;;9.88;4.78;;;;;;;;;;6195698;23;20004;-79
2022/11/15 09:18:25;;;;;;;7.13;4.25;;;;;;;;;;6195623;23;20012;-80
2022/11/15 09:20:51;;;;;;;5.78;3.58;;;;;;;;;;6198424;23;20005;-80
2022/11/15 09:23:17;;;;;;;6.07;3.80;;;;;;;;;;6198353;23;20009;-78
2022/11/15 09:25:44;;;;;;;8.88;4.63;;;;;;;;;;6171357;23;20777;-78
2022/11/15 09:28:10;;;;;;;6.05;4.18;;;;;;;;;;6196268;23;20564;-81
2022/11/15 09:30:36;;;;;;;5.82;3.90;;;;;;;;;;6196791;23;20005;-81
2022/11/15 09:33:12;;;;;;;5.55;4.47;;;;;;;;;;6198217;23;20023;-81
2022/11/15 09:35:40;;;;;;;7.95;4.22;;;;;;;;;;6197222;23;20011;-80
2022/11/15 09:38:07;;;;;;;3.92;2.90;;;;;;;;;;6197906;23;20012;-80
2022/11/15 09:40:36;;;;;;;7.50;3.10;;;;;;;;;;6197387;23;19996;-80
2022/11/15 09:43:21;;;;;;;4.88;2.75;;;;;;;;;;6195393;23;20005;-77
2022/11/15 09:46:05;;;;;;;4.03;3.63;;;;;;;;;;6197498;23;20009;-79
2022/11/15 09:48:37;;;;;;;5.75;3.58;;;;;;;;;;6198036;23;20020;-80
2022/11/15 09:51:05;;;;;;;6.63;5.30;;;;;;;;;;6197359;23;20580;-80
2022/11/15 09:53:41;;;;;;;5.15;4.10;;;;;;;;;;6196708;23;20054;-80
2022/11/15 09:56:16;;;;;;;4.88;3.13;;;;;;;;;;6196153;23;20000;-80
2022/11/15 09:58:55;;;;;;;3.63;2.67;;;;;;;;;;6196776;23;20016;-81
2022/11/15 10:01:31;;;;;;;4.10;2.90;;;;;;;;;;6195832;23;20008;-80
2022/11/15 10:03:59;;;;;;;3.75;3.25;;;;;;;;;;6197853;23;20146;-81
2022/11/15 10:06:26;;;;;;;5.47;3.47;;;;;;;;;;6195504;23;20001;-82
2022/11/15 10:09:07;;;;;;;4.53;2.95;;;;;;;;;;6195942;23;20001;-82
2022/11/15 10:11:37;;;;;;;3.35;2.47;;;;;;;;;;6196309;23;20333;-82
2022/11/15 10:14:11;;;;;;;4.53;2.20;;;;;;;;;;6196861;23;20631;-82
2022/11/15 10:16:51;;;;;;;3.50;2.53;;;;;;;;;;6199069;23;20115;-81
2022/11/15 10:19:27;;;;;;;6.75;3.85;;;;;;;;;;6198628;23;20343;-81
2022/11/15 10:21:59;;;;;;;4.07;2.83;;;;;;;;;;6197942;23;20071;-80
2022/11/15 10:24:29;;;;;;;3.92;2.70;;;;;;;;;;6196971;23;20011;-81
2022/11/15 10:26:56;;;;;;;4.65;2.90;;;;;;;;;;6170966;23;20503;-81
2022/11/15 10:29:23;;;;;;;8.38;3.22;;;;;;;;;;6195545;23;20066;-80
2022/11/15 10:31:49;;;;;;;5.40;2.92;;;;;;;;;;6197335;23;20007;-82
2022/11/15 10:34:20;;;;;;;7.10;3.95;;;;;;;;;;6197662;23;20001;-81
2022/11/15 10:36:47;;;;;;;12.95;4.40;;;;;;;;;;6195480;23;20008;-82
2022/11/15 10:39:14;;;;;;;8.48;4.22;;;;;;;;;;6196748;23;20021;-81
2022/11/15 10:41:41;;;;;;;6.07;4.28;;;;;;;;;;6196850;23;20349;-79
2022/11/15 10:44:07;;;;;;;6.57;3.80;;;;;;;;;;6194648;23;20084;-82
2022/11/15 10:46:37;;;;;;;5.43;3.88;;;;;;;;;;6168463;23;20690;-82
2022/11/15 10:49:18;;;;;;;5.78;3.50;;;;;;;;;;6195945;23;20015;-81
2022/11/15 10:51:49;;;;;;;5.22;3.10;;;;;;;;;;6194955;23;20001;-82
2022/11/15 10:54:24;;;;;;;6.47;3.58;;;;;;;;;;6196033;23;20012;-81
2022/11/15 10:56:52;;;;;;;8.32;3.65;;;;;;;;;;6193608;23;19993;-82
2022/11/15 10:59:23;;;;;;;5.45;3.67;;;;;;;;;;6196747;23;20512;-81
2022/11/15 11:01:50;;;;;;;4.97;3.30;;;;;;;;;;6195659;23;20012;-83
2022/11/15 11:04:16;;;;;;;7.03;3.03;;;;;;;;;;6197467;23;20062;-81
2022/11/15 11:06:51;;;;;;;5.95;3.47;;;;;;;;;;6197036;23;20001;-80
2022/11/15 11:09:26;;;;;;;5.90;3.17;;;;;;;;;;6196059;23;20008;-80
2022/11/15 11:11:52;;;;;;;6.70;3.17;;;;;;;;;;6196963;23;20004;-80
2022/11/15 11:14:24;;;;;;;3.90;3.20;;;;;;;;;;6196771;23;20485;-80
2022/11/15 11:17:16;;;;;;;4.70;2.67;;;;;;;;;;6197643;23;20008;-80
2022/11/15 11:19:42;;;;;;;;;;;;;;;;;;6191572;23;20019;-77
2022/11/15 11:22:20;;;;;;;6.00;3.00;;;;;;;;;;6197357;23;19900;-77
2022/11/15 11:25:05;;;;;;;3.92;2.83;;;;;;;;;;6195999;23;20055;-76
2022/11/15 11:27:35;;;;;;;5.65;3.00;;;;;;;;;;6198243;23;20013;-77
2022/11/15 11:30:13;;;;;;;5.13;3.17;;;;;;;;;;6197657;23;20588;-76
2022/11/15 11:32:58;;;;;;;4.53;2.45;;;;;;;;;;6207883;23;20294;-84
2022/11/15 11:35:33;;;;;;;3.70;2.50;;;;;;;;;;6209552;23;20032;-83
2022/11/15 11:38:18;;;;;;;4.85;2.33;;;;;;;;;;6213657;23;20072;-83
2022/11/15 11:40:51;;;;;;;4.38;2.60;;;;;;;;;;6198796;23;20000;-82
2022/11/15 11:43:24;;;;;;;5.07;2.50;;;;;;;;;;6198856;23;20005;-82
2022/11/15 11:46:00;;;;;;;4.32;2.65;;;;;;;;;;6199539;23;20024;-82
2022/11/15 11:48:58;;;;;;;6.35;2.65;;;;;;;;;;6199583;23;20001;-82
2022/11/15 11:51:46;;;;;;;6.55;3.13;;;;;;;;;;6142213;23;20011;-87
2022/11/15 11:54:15;;;;;;;4.10;2.63;;;;;;;;;;6199743;23;20820;-81
2022/11/15 11:56:42;;;;;;;4.35;2.78;;;;;;;;;;6199452;23;20008;-83
2022/11/15 11:59:27;;;;;;;5.22;2.80;;;;;;;;;;6199407;23;20044;-77
2022/11/15 12:01:54;;;;;;;6.25;3.67;;;;;;;;;;6194851;23;19997;-79
2022/11/15 12:04:31;;;;;;;4.72;3.30;;;;;;;;;;6199339;23;20822;-81
2022/11/15 12:07:00;;;;;;;6.53;3.50;;;;;;;;;;6198654;23;20005;-82
2022/11/15 12:09:42;;;;;;;6.00;4.00;;;;;;;;;;6199427;23;20085;-83
2022/11/15 12:12:22;;;;;;;7.80;3.88;;;;;;;;;;6197513;23;20004;-83
2022/11/15 12:14:57;;;;;;;4.93;3.03;;;;;;;;;;6198194;23;20434;-82
2022/11/15 12:17:27;;;;;;;6.22;2.83;;;;;;;;;;6199250;23;20005;-81
2022/11/15 12:19:56;;;;;;;5.43;3.35;;;;;;;;;;6198438;23;20457;-83
2022/11/15 12:22:25;;;;;;;4.63;2.70;;;;;;;;;;6199051;23;20054;-81
2022/11/15 12:24:55;;;;;;;6.47;2.65;;;;;;;;;;6197429;23;20091;-82
2022/11/15 12:27:27;;;;;;;6.82;3.17;;;;;;;;;;6199606;23;20453;-84
2022/11/15 12:29:58;;;;;;;4.38;3.38;;;;;;;;;;6197074;23;20005;-86
2022/11/15 12:32:32;;;;;;;3.40;2.72;;;;;;;;;;6197458;23;19996;-87
2022/11/15 12:34:59;;;;;;;4.30;3.10;;;;;;;;;;6172251;23;20043;-85
2022/11/15 12:37:34;;;;;;;4.47;3.15;;;;;;;;;;6199932;23;20012;-84
2022/11/15 12:40:10;;;;;;;3.17;2.70;;;;;;;;;;6198772;23;20004;-86
2022/11/15 12:42:41;;;;;;;6.47;3.42;;;;;;;;;;6197138;23;20008;-86
2022/11/15 12:45:33;;;;;;;4.38;3.00;;;;;;;;;;6198925;23;20020;-84
2022/11/15 12:48:17;;;;;;;8.02;3.13;;;;;;;;;;6193679;23;20063;-85
2022/11/15 12:50:56;;;;;;;3.70;2.40;;;;;;;;;;6195882;23;20003;-85
2022/11/15 12:53:25;;;;;;;5.97;2.88;;;;;;;;;;6198906;23;20063;-84
2022/11/15 12:56:10;;;;;;;4.93;2.60;;;;;;;;;;6198251;23;20382;-84
2022/11/15 12:58:46;;;;;;;5.93;2.83;;;;;;;;;;6197715;23;20020;-83
2022/11/15 13:01:35;;;;;;;3.83;2.40;;;;;;;;;;6196877;23;20008;-85
2022/11/15 13:04:13;;;;;;;5.68;2.67;;;;;;;;;;6199008;23;20005;-83
2022/11/15 13:06:41;;;;;;;4.63;3.42;;;;;;;;;;6198868;23;20004;-85
2022/11/15 13:09:26;;;;;;;5.05;3.10;;;;;;;;;;6198717;23;20032;-85
2022/11/15 13:11:53;;;;;;;4.53;2.88;;;;;;;;;;6198804;23;20025;-86
2022/11/15 13:14:41;;;;;;;7.10;4.22;;;;;;;;;;6199579;23;20005;-87
2022/11/15 13:17:19;;;;;;;5.80;3.80;;;;;;;;;;6197671;23;20004;-86
2022/11/15 13:19:47;;;;;;;5.55;4.32;;;;;;;;;;6198122;23;20087;-87
2022/11/15 13:24:58;;;;;;;7.32;4.07;;;;;;;;;;6198244;23;20027;-87
2022/11/15 13:27:25;;;;;;;7.03;4.10;;;;;;;;;;6199130;23;19997;-88
2022/11/15 13:29:51;;;;;;;5.95;4.10;;;;;;;;;;6199115;23;20463;-86
2022/11/15 13:32:17;;;;;;;9.13;4.78;;;;;;;;;;6196517;23;20000;-88
2022/11/15 13:34:46;;;;;;;6.13;3.90;;;;;;;;;;6198690;23;20141;-87
2022/11/15 13:37:33;;;;;;;7.03;4.45;;;;;;;;;;6199217;23;20026;-87
2022/11/15 13:40:32;;;;;;;6.18;3.45;;;;;;;;;;6199390;23;20036;-88
2022/11/15 13:42:58;;;;;;;4.25;3.33;;;;;;;;;;6130665;23;20004;-88
2022/11/15 13:45:24;;;;;;;4.72;2.70;;;;;;;;;;6198982;23;20008;-87
2022/11/15 13:47:57;;;;;;;7.93;3.25;;;;;;;;;;6198949;23;20004;-88
2022/11/15 13:50:31;;;;;;;3.85;2.80;;;;;;;;;;6199319;23;20015;-88
2022/11/15 13:52:59;;;;;;;4.68;2.75;;;;;;;;;;6199587;23;20009;-87
2022/11/15 13:55:25;;;;;;;3.53;2.70;;;;;;;;;;6172084;23;20008;-87
2022/11/15 13:57:57;;;;;;;6.28;3.05;;;;;;;;;;6171232;23;20009;-87
2022/11/15 14:00:35;;;;;;;5.75;2.97;;;;;;;;;;6198937;23;20008;-87
2022/11/15 14:03:21;;;;;;;6.00;2.67;;;;;;;;;;6197013;23;20429;-87
2022/11/15 14:06:03;;;;;;;7.85;3.08;;;;;;;;;;6198052;23;20076;-87
2022/11/15 14:08:29;;;;;;;3.78;2.67;;;;;;;;;;6197390;23;20004;-87
2022/11/15 14:11:07;;;;;;;4.88;2.75;;;;;;;;;;6198513;23;20016;-87
2022/11/15 14:13:34;;;;;;;5.00;2.60;;;;;;;;;;6198267;23;20422;-87
2022/11/15 14:16:20;;;;;;;4.20;2.70;;;;;;;;;;6199021;23;20026;-87
2022/11/15 14:18:53;;;;;;;5.55;2.88;;;;;;;;;;6197199;23;20587;-88
2022/11/15 14:21:20;;;;;;;4.25;2.90;;;;;;;;;;6198956;23;20080;-87
2022/11/15 14:23:48;;;;;;;7.65;3.25;;;;;;;;;;6199171;23;20008;-86
2022/11/15 14:26:33;;;;;;;3.38;2.42;;;;;;;;;;6172737;23;20005;-87
2022/11/15 14:29:19;;;;;;;4.93;2.40;;;;;;;;;;6197359;23;20011;-87
2022/11/15 14:31:46;;;;;;;4.45;2.50;;;;;;;;;;6177769;23;20004;-87
2022/11/15 14:34:12;;;;;;;5.20;3.05;;;;;;;;;;6198903;23;20001;-87
2022/11/15 14:36:38;;;;;;;4.60;2.88;;;;;;;;;;6170799;23;20483;-87
2022/11/15 14:39:05;;;;;;;7.05;2.95;;;;;;;;;;6173441;23;20012;-85
2022/11/15 14:41:37;;;;;;;6.07;2.92;;;;;;;;;;6170713;23;20013;-87
2022/11/15 14:44:03;;;;;;;5.70;3.13;;;;;;;;;;6198819;23;20012;-87
2022/11/15 14:46:29;;;;;;;4.68;3.20;;;;;;;;;;6198884;23;20449;-86
2022/11/15 14:48:55;;;;;;;6.10;2.85;;;;;;;;;;6197450;23;20172;-88
2022/11/15 14:51:22;;;;;;;5.35;3.33;;;;;;;;;;6199184;23;20005;-82
2022/11/15 14:53:48;;;;;;;7.20;3.67;;;;;;;;;;6197029;23;20034;-89
2022/11/15 14:56:15;;;;;;;5.55;4.03;;;;;;;;;;6198860;23;20000;-88
2022/11/15 14:58:42;;;;;;;6.28;4.30;;;;;;;;;;6198685;23;20013;-88
2022/11/15 15:01:11;;;;;;;7.60;4.20;;;;;;;;;;6172095;23;20009;-85
2022/11/15 15:03:37;;;;;;;10.35;4.68;;;;;;;;;;6199808;23;20032;-86
2022/11/15 15:06:04;;;;;;;6.97;4.25;;;;;;;;;;6199052;23;20004;-89
2022/11/15 15:08:30;;;;;;;7.50;4.50;;;;;;;;;;6174127;23;20412;-81
2022/11/15 15:10:56;;;;;;;7.50;4.68;;;;;;;;;;6198883;23;20659;-81
2022/11/15 15:13:23;;;;;;;10.15;4.22;;;;;;;;;;6200495;23;20015;-80
2022/11/15 15:15:50;;;;;;;8.20;4.22;;;;;;;;;;6200054;23;20518;-81
2022/11/15 15:18:17;;;;;;;7.93;4.05;;;;;;;;;;6198751;23;20500;-79
2022/11/15 15:20:45;;;;;;;6.80;3.92;;;;;;;;;;6200771;23;20518;-80